createdAt,value
2023-02-03T00:01:25.508Z,99743.53
2023-02-03T00:04:27.689Z,99744.75
2023-02-03T00:07:30.008Z,99742.28
2023-02-03T00:10:34.003Z,99760.72
2023-02-03T00:13:36.452Z,99762.50
2023-02-03T00:16:38.808Z,99766.34
2023-02-03T00:19:41.312Z,99767.59
2023-02-03T00:22:43.485Z,99772.81
2023-02-03T00:25:45.702Z,99772.50
2023-02-03T00:28:48.008Z,99781.94
2023-02-03T00:31:50.402Z,99784.44
2023-02-03T00:34:52.693Z,99796.94
2023-02-03T00:37:56.382Z,99793.78
2023-02-03T00:40:58.539Z,99797.47
2023-02-03T00:44:00.729Z,99799.66
2023-02-03T00:47:02.920Z,99803.78
2023-02-03T00:50:06.365Z,99807.62
2023-02-03T00:53:08.647Z,99818.66
2023-02-03T00:56:12.835Z,99815.91
2023-02-03T00:59:15.150Z,99814.38
2023-02-03T01:02:17.524Z,99822.53
2023-02-03T01:05:19.742Z,99821.44
2023-02-03T01:08:23.695Z,99819.22
2023-02-03T01:11:27.357Z,99822.41
2023-02-03T01:14:29.538Z,99823.75
2023-02-03T01:17:31.738Z,99823.31
2023-02-03T01:20:33.936Z,99828.03
2023-02-03T01:23:37.428Z,99822.34
2023-02-03T01:26:39.564Z,99825.91
2023-02-03T01:29:41.772Z,99832.13
2023-02-03T01:32:44.019Z,99826.19
2023-02-03T01:35:46.181Z,99843.63
2023-02-03T01:38:48.420Z,99840.72
2023-02-03T01:41:50.656Z,99844.28
2023-02-03T01:44:52.979Z,99843.16
2023-02-03T01:47:58.377Z,99857.66
2023-02-03T01:51:02.486Z,99851.88
2023-02-03T01:54:05.195Z,99839.31
2023-02-03T01:57:34.992Z,99845.31
2023-02-03T02:00:37.191Z,99851.44
2023-02-03T02:03:47.017Z,99853.41
2023-02-03T02:06:49.288Z,99857.94
2023-02-03T02:09:51.723Z,99853.31
2023-02-03T02:12:56.772Z,99864.50
2023-02-03T02:16:24.918Z,99862.59
2023-02-03T02:19:44.902Z,99861.19
2023-02-03T02:22:53.100Z,99853.22
2023-02-03T02:26:30.938Z,99844.50
2023-02-03T02:29:33.033Z,99848.16
2023-02-03T02:32:43.805Z,99852.53
2023-02-03T02:35:56.988Z,99865.59
2023-02-03T02:39:21.719Z,99863.75
2023-02-03T02:42:36.538Z,99863.50
2023-02-03T02:45:44.842Z,99859.62
2023-02-03T02:48:46.996Z,99861.28
2023-02-03T02:51:49.982Z,99855.81
2023-02-03T02:54:54.979Z,99863.19
2023-02-03T02:58:02.825Z,99862.47
2023-02-03T03:01:08.183Z,99879.69
2023-02-03T03:04:12.477Z,99885.75
2023-02-03T03:07:23.038Z,99884.34
2023-02-03T03:10:27.740Z,99879.34
2023-02-03T03:13:33.132Z,99874.00
2023-02-03T03:16:37.922Z,99875.91
2023-02-03T03:19:44.243Z,99880.19
2023-02-03T03:22:50.824Z,99873.66
2023-02-03T03:26:00.564Z,99860.84
2023-02-03T03:29:31.209Z,99867.12
2023-02-03T03:32:33.555Z,99869.28
2023-02-03T03:36:01.583Z,99870.47
2023-02-03T03:39:12.534Z,99875.56
2023-02-03T03:42:31.554Z,99880.31
2023-02-03T03:46:13.759Z,99887.56
2023-02-03T03:49:16.738Z,99884.59
2023-02-03T03:52:23.010Z,99879.37
2023-02-03T03:55:28.006Z,99879.94
2023-02-03T03:58:31.763Z,99889.06
2023-02-03T04:01:34.095Z,99880.91
2023-02-03T04:04:37.904Z,99876.28
2023-02-03T04:07:43.129Z,99872.13
2023-02-03T04:10:45.471Z,99874.00
2023-02-03T04:13:47.673Z,99881.84
2023-02-03T04:16:49.926Z,99882.78
2023-02-03T04:19:52.081Z,99886.69
2023-02-03T04:22:54.469Z,99888.69
2023-02-03T04:25:56.929Z,99889.66
2023-02-03T04:28:59.097Z,99886.91
2023-02-03T04:32:01.374Z,99886.81
2023-02-03T04:35:05.126Z,99889.28
2023-02-03T04:38:07.377Z,99894.50
2023-02-03T04:41:09.569Z,99908.91
2023-02-03T04:44:11.996Z,99902.13
2023-02-03T04:47:14.607Z,99898.47
2023-02-03T04:50:16.867Z,99901.44
2023-02-03T04:53:19.040Z,99895.16
2023-02-03T04:56:21.250Z,99884.00
2023-02-03T04:59:23.634Z,99875.81
2023-02-03T05:02:25.827Z,99863.22
2023-02-03T05:05:28.141Z,99861.69
2023-02-03T05:08:31.048Z,99860.84
2023-02-03T05:11:33.451Z,99857.63
2023-02-03T05:14:35.677Z,99846.75
2023-02-03T05:17:40.043Z,99843.44
2023-02-03T05:20:42.268Z,99856.72
2023-02-03T05:23:45.071Z,99859.41
2023-02-03T05:26:47.305Z,99855.06
2023-02-03T05:29:49.507Z,99848.97
2023-02-03T05:32:51.666Z,99850.72
2023-02-03T05:35:53.835Z,99856.66
2023-02-03T05:38:55.991Z,99849.19
2023-02-03T05:41:58.671Z,99859.69
2023-02-03T05:45:00.877Z,99867.81
2023-02-03T05:48:03.183Z,99877.44
2023-02-03T05:51:05.561Z,99876.84
2023-02-03T05:54:08.028Z,99881.22
2023-02-03T05:57:10.192Z,99877.66
2023-02-03T06:00:13.208Z,99881.13
2023-02-03T06:03:15.768Z,99886.81
2023-02-03T06:06:18.462Z,99886.25
2023-02-03T06:09:20.631Z,99878.53
2023-02-03T06:12:22.946Z,99874.97
2023-02-03T06:15:25.126Z,99857.66
2023-02-03T06:18:27.329Z,99858.03
2023-02-03T06:21:29.597Z,99852.91
2023-02-03T06:24:31.868Z,99864.28
2023-02-03T06:27:34.382Z,99868.34
2023-02-03T06:30:36.749Z,99870.94
2023-02-03T06:33:38.948Z,99874.59
2023-02-03T06:36:41.213Z,99884.63
2023-02-03T06:39:43.350Z,99881.28
2023-02-03T06:42:47.214Z,99879.31
2023-02-03T06:45:49.449Z,99877.81
2023-02-03T06:48:51.631Z,99880.47
2023-02-03T06:51:53.805Z,99876.25
2023-02-03T06:54:55.952Z,99877.78
2023-02-03T06:57:58.087Z,99877.91
2023-02-03T07:01:00.276Z,99894.87
2023-02-03T07:04:02.764Z,99897.22
2023-02-03T07:07:05.541Z,99887.50
2023-02-03T07:10:08.245Z,99885.84
2023-02-03T07:13:10.466Z,99883.34
2023-02-03T07:16:12.857Z,99874.22
2023-02-03T07:19:15.080Z,99872.88
2023-02-03T07:22:17.257Z,99875.88
2023-02-03T07:25:19.599Z,99877.50
2023-02-03T07:28:21.845Z,99870.81
2023-02-03T07:31:24.087Z,99881.94
2023-02-03T07:34:26.335Z,99879.87
2023-02-03T07:37:28.536Z,99881.59
2023-02-03T07:40:30.749Z,99883.47
2023-02-03T07:43:33.001Z,99878.81
2023-02-03T07:46:35.554Z,99873.75
2023-02-03T07:49:37.848Z,99889.06
2023-02-03T07:52:40.417Z,99891.56
2023-02-03T07:55:42.703Z,99896.47
2023-02-03T07:58:44.883Z,99895.84
2023-02-03T08:01:47.208Z,99896.28
2023-02-03T08:04:49.413Z,99892.09
2023-02-03T08:07:51.807Z,99884.38
2023-02-03T08:10:56.094Z,99889.19
2023-02-03T08:13:58.262Z,99886.53
2023-02-03T08:17:00.499Z,99885.81
2023-02-03T08:20:02.821Z,99897.00
2023-02-03T08:23:05.181Z,99897.88
2023-02-03T08:26:07.383Z,99889.50
2023-02-03T08:29:11.554Z,99890.78
2023-02-03T08:32:16.320Z,99895.44
2023-02-03T08:35:18.814Z,99909.66
2023-02-03T08:38:21.920Z,99903.53
2023-02-03T08:41:24.086Z,99908.66
2023-02-03T08:44:26.561Z,99906.59
2023-02-03T08:47:28.841Z,99913.09
2023-02-03T08:50:31.283Z,99910.53
2023-02-03T08:53:33.622Z,99910.78
2023-02-03T08:56:35.843Z,99909.03
2023-02-03T08:59:40.332Z,99908.06
2023-02-03T09:02:42.517Z,99908.69
2023-02-03T09:05:44.678Z,99905.81
2023-02-03T09:08:46.965Z,99905.59
2023-02-03T09:11:49.202Z,99908.81
2023-02-03T09:14:51.382Z,99904.69
2023-02-03T09:17:55.406Z,99897.19
2023-02-03T09:21:05.670Z,99901.97
2023-02-03T09:24:08.910Z,99902.25
2023-02-03T09:27:11.232Z,99892.47
2023-02-03T09:30:14.547Z,99895.84
2023-02-03T09:33:16.755Z,99897.34
2023-02-03T09:36:18.953Z,99890.41
2023-02-03T09:39:21.128Z,99885.09
2023-02-03T09:42:41.627Z,99881.03
2023-02-03T09:45:43.949Z,99877.25
2023-02-03T09:49:13.302Z,99872.03
2023-02-03T09:52:23.120Z,99876.12
2023-02-03T09:55:30.236Z,99864.97
2023-02-03T09:58:35.776Z,99851.19
2023-02-03T10:01:43.623Z,99846.28
2023-02-03T10:05:16.347Z,99844.06
2023-02-03T10:08:21.548Z,99838.75
2023-02-03T10:12:01.646Z,99833.03
2023-02-03T10:15:41.147Z,99828.75
2023-02-03T10:18:52.197Z,99809.78
2023-02-03T10:21:58.722Z,99813.66
2023-02-03T10:25:08.160Z,99806.50
2023-02-03T10:28:19.344Z,99797.16
2023-02-03T10:31:36.141Z,99779.09
2023-02-03T10:34:39.220Z,99770.09
2023-02-03T10:37:45.021Z,99774.06
2023-02-03T10:40:47.617Z,99760.81
2023-02-03T10:43:52.097Z,99756.56
2023-02-03T10:46:54.295Z,99743.63
2023-02-03T10:49:57.837Z,99736.72
2023-02-03T10:53:18.369Z,99726.56
2023-02-03T10:56:26.159Z,99726.72
2023-02-03T10:59:30.749Z,99720.81
2023-02-03T11:02:32.983Z,99717.13
2023-02-03T11:05:35.421Z,99705.44
2023-02-03T11:08:41.513Z,99698.03
2023-02-03T11:11:43.718Z,99701.25
2023-02-03T11:14:46.921Z,99694.22
2023-02-03T11:17:49.203Z,99683.88
2023-02-03T11:20:51.411Z,99673.56
2023-02-03T11:23:57.372Z,99658.19
2023-02-03T11:27:17.210Z,99652.81
2023-02-03T11:30:25.552Z,99653.66
2023-02-03T11:33:28.974Z,99636.13
2023-02-03T11:36:34.585Z,99632.16
2023-02-03T11:39:36.802Z,99620.31
2023-02-03T11:42:44.472Z,99611.78
2023-02-03T11:45:51.840Z,99595.97
2023-02-03T11:49:02.063Z,99588.09
2023-02-03T11:52:07.195Z,99587.97
2023-02-03T11:55:34.742Z,99569.22
2023-02-03T11:59:00.994Z,99562.66
2023-02-03T12:02:24.628Z,99556.97
2023-02-03T12:05:34.676Z,99545.44
2023-02-03T12:09:12.754Z,99535.91
2023-02-03T12:12:33.855Z,99524.50
2023-02-03T12:15:46.981Z,99525.31
2023-02-03T12:19:13.567Z,99518.97
2023-02-03T12:22:18.451Z,99510.44
2023-02-03T12:25:37.460Z,99490.50
2023-02-03T12:28:46.925Z,99490.63
2023-02-03T12:31:58.896Z,99486.09
2023-02-03T12:35:12.154Z,99472.97
2023-02-03T12:38:40.638Z,99458.25
2023-02-03T12:41:46.666Z,99441.09
2023-02-03T12:44:52.004Z,99434.50
2023-02-03T12:48:03.088Z,99429.41
2023-02-03T12:51:10.928Z,99413.31
2023-02-03T12:54:29.620Z,99398.72
2023-02-03T12:57:42.160Z,99390.31
2023-02-03T13:00:47.276Z,99387.16
2023-02-03T13:03:54.386Z,99375.75
2023-02-03T13:07:58.734Z,99367.34
2023-02-03T13:11:15.604Z,99355.34
2023-02-03T13:14:24.266Z,99356.75
2023-02-03T13:17:34.709Z,99343.00
2023-02-03T13:20:37.227Z,99336.53
2023-02-03T13:23:45.064Z,99332.69
2023-02-03T13:27:21.820Z,99329.66
2023-02-03T13:30:39.287Z,99312.88
2023-02-03T13:33:44.061Z,99309.84
2023-02-03T13:37:00.991Z,99309.03
2023-02-03T13:40:33.428Z,99300.50
2023-02-03T13:43:39.542Z,99287.59
2023-02-03T13:46:42.119Z,99286.88
2023-02-03T13:49:48.349Z,99290.31
2023-02-03T13:53:16.798Z,99272.03
2023-02-03T13:56:23.818Z,99276.16
2023-02-03T13:59:38.109Z,99261.56
2023-02-03T14:02:54.668Z,99263.06
2023-02-03T14:05:58.539Z,99256.03
2023-02-03T14:09:00.762Z,99250.56
2023-02-03T14:12:15.046Z,99251.50
2023-02-03T14:15:30.867Z,99242.97
2023-02-03T14:18:35.148Z,99236.38
2023-02-03T14:21:44.214Z,99235.97
2023-02-03T14:24:48.674Z,99223.25
2023-02-03T14:28:01.016Z,99222.19
2023-02-03T14:31:07.483Z,99210.91
2023-02-03T14:34:13.286Z,99207.31
2023-02-03T14:37:25.479Z,99203.34
2023-02-03T14:40:52.445Z,99198.91
2023-02-03T14:44:18.984Z,99195.72
2023-02-03T14:47:45.646Z,99190.31
2023-02-03T14:51:15.549Z,99193.84
2023-02-03T14:54:28.502Z,99173.50
2023-02-03T14:57:56.490Z,99173.88
2023-02-03T15:00:59.165Z,99170.06
2023-02-03T15:04:13.607Z,99167.00
2023-02-03T15:07:38.593Z,99160.66
2023-02-03T15:10:44.082Z,99148.06
2023-02-03T15:13:46.338Z,99144.78
2023-02-03T15:16:53.627Z,99137.09
2023-02-03T15:19:55.871Z,99133.34
2023-02-03T15:22:58.146Z,99130.97
2023-02-03T15:26:12.810Z,99122.00
2023-02-03T15:29:26.897Z,99119.81
2023-02-03T15:32:33.859Z,99107.34
2023-02-03T15:35:38.086Z,99106.22
2023-02-03T15:38:43.808Z,99087.31
2023-02-03T15:41:49.888Z,99093.28
2023-02-03T15:45:02.664Z,99096.28
2023-02-03T15:48:23.146Z,99094.19
2023-02-03T15:51:32.271Z,99088.94
2023-02-03T15:54:45.977Z,99077.22
2023-02-03T15:57:49.513Z,99081.25
2023-02-03T16:00:56.924Z,99089.62
2023-02-03T16:03:59.527Z,99077.72
2023-02-03T16:07:01.779Z,99079.47
2023-02-03T16:10:04.291Z,99071.09
2023-02-03T16:13:21.251Z,99070.53
2023-02-03T16:17:04.414Z,99059.50
2023-02-03T16:20:13.438Z,99050.97
2023-02-03T16:23:24.249Z,99051.66
2023-02-03T16:26:28.240Z,99044.09
2023-02-03T16:29:54.415Z,99043.41
2023-02-03T16:33:27.542Z,99033.03
2023-02-03T16:36:48.414Z,99025.03
2023-02-03T16:40:09.325Z,99017.84
2023-02-03T16:43:34.686Z,99014.03
2023-02-03T16:46:56.023Z,98995.87
2023-02-03T16:50:19.889Z,98989.88
2023-02-03T16:53:30.754Z,98984.19
2023-02-03T16:56:32.985Z,98994.31
2023-02-03T16:59:35.148Z,98986.09
2023-02-03T17:02:37.444Z,98976.12
2023-02-03T17:05:40.875Z,98976.62
2023-02-03T17:08:43.063Z,98970.09
2023-02-03T17:11:45.274Z,98956.31
2023-02-03T17:14:47.440Z,98948.63
2023-02-03T17:17:49.669Z,98935.06
2023-02-03T17:20:52.263Z,98930.50
2023-02-03T17:23:54.471Z,98904.16
2023-02-03T17:26:58.915Z,98900.38
2023-02-03T17:30:01.478Z,98895.81
2023-02-03T17:33:12.516Z,98898.78
2023-02-03T17:36:16.992Z,98898.81
2023-02-03T17:56:32.345Z,98857.94
2023-02-03T17:59:37.683Z,98866.19
2023-02-03T18:02:40.325Z,98873.06
2023-02-03T18:05:52.374Z,98865.25
2023-02-03T18:09:01.077Z,98845.09
2023-02-03T18:12:03.350Z,98844.75
2023-02-03T18:15:05.686Z,98826.72
2023-02-03T18:18:08.053Z,98840.50
2023-02-03T18:21:12.397Z,98835.75
2023-02-03T18:24:15.091Z,98844.13
2023-02-03T18:27:17.855Z,98842.47
2023-02-03T18:30:21.717Z,98843.63
2023-02-03T18:33:24.270Z,98845.75
2023-02-03T18:36:26.459Z,98850.97
2023-02-03T18:39:30.043Z,98862.62
2023-02-03T18:42:32.511Z,98853.75
2023-02-03T18:45:37.905Z,98847.34
2023-02-03T18:48:40.427Z,98855.91
2023-02-03T18:51:43.979Z,98852.78
2023-02-03T18:54:46.403Z,98866.06
2023-02-03T18:57:48.865Z,98860.47
2023-02-03T19:00:51.311Z,98866.34
2023-02-03T19:03:58.743Z,98857.13
2023-02-03T19:07:01.373Z,98845.28
2023-02-03T19:10:03.978Z,98834.97
2023-02-03T19:13:06.755Z,98817.34
2023-02-03T19:16:12.767Z,98798.28
2023-02-03T19:19:15.379Z,98802.59
2023-02-03T19:22:17.849Z,98789.97
2023-02-03T19:25:20.421Z,98791.13
2023-02-03T19:28:30.611Z,98782.44
2023-02-03T19:31:35.792Z,98777.50
2023-02-03T19:34:38.593Z,98774.44
2023-02-03T19:37:41.184Z,98768.44
2023-02-03T19:40:44.890Z,98785.72
2023-02-03T19:43:47.872Z,98781.63
2023-02-03T19:46:50.453Z,98767.38
2023-02-03T19:49:53.043Z,98767.91
2023-02-03T19:52:55.560Z,98759.69
2023-02-03T19:55:58.158Z,98753.44
2023-02-03T19:59:00.749Z,98753.78
2023-02-03T20:02:13.735Z,98773.50
2023-02-03T20:05:17.568Z,98764.81
2023-02-03T20:08:20.303Z,98762.03
2023-02-03T20:11:22.984Z,98762.53
2023-02-03T20:14:25.870Z,98742.50
2023-02-03T20:17:29.265Z,98745.78
2023-02-03T20:20:32.016Z,98749.22
2023-02-03T20:23:35.334Z,98751.59
2023-02-03T20:26:37.933Z,98754.22
2023-02-03T20:29:40.661Z,98753.22
2023-02-03T20:32:43.110Z,98763.72
2023-02-03T20:35:45.321Z,98785.69
2023-02-03T20:38:48.626Z,98789.16
2023-02-03T20:41:51.099Z,98797.84
2023-02-03T20:44:53.822Z,98791.13
2023-02-03T20:47:56.277Z,98784.25
2023-02-03T20:50:58.706Z,98788.34
2023-02-03T20:54:01.223Z,98780.31
2023-02-03T20:57:09.454Z,98781.47
2023-02-03T21:00:19.414Z,98780.63
2023-02-03T21:03:40.701Z,98779.81
2023-02-03T21:06:43.344Z,98786.81
2023-02-03T21:09:45.935Z,98787.97
2023-02-03T21:12:49.492Z,98781.75
2023-02-03T21:15:53.707Z,98796.50
2023-02-03T21:19:00.298Z,98795.34
2023-02-03T21:22:23.660Z,98806.66
2023-02-03T21:25:32.157Z,98799.28
2023-02-03T21:28:34.582Z,98812.87
2023-02-03T21:31:37.609Z,98808.31
2023-02-03T21:34:42.669Z,98815.66
2023-02-03T21:37:45.060Z,98811.09
2023-02-03T21:40:47.460Z,98823.09
2023-02-03T21:43:58.032Z,98819.63
2023-02-03T21:47:11.831Z,98824.22
2023-02-03T21:50:35.458Z,98831.91
2023-02-03T21:53:38.473Z,98836.53
2023-02-03T21:56:42.002Z,98829.50
2023-02-03T21:59:47.254Z,98830.66
2023-02-03T22:02:58.754Z,98846.88
2023-02-03T22:06:13.630Z,98839.66
2023-02-03T22:09:23.497Z,98840.16
2023-02-03T22:12:25.702Z,98840.50
2023-02-03T22:15:28.110Z,98845.09
2023-02-03T22:18:30.944Z,98839.97
2023-02-03T22:21:33.162Z,98844.91
2023-02-03T22:24:35.523Z,98836.69
2023-02-03T22:27:37.812Z,98848.81
2023-02-03T22:30:40.369Z,98859.31
2023-02-03T22:33:43.082Z,98879.47
2023-02-03T22:36:45.269Z,98888.34
2023-02-03T22:39:47.486Z,98872.44
2023-02-03T22:42:49.833Z,98867.03
2023-02-03T22:45:52.241Z,98871.44
2023-02-03T22:48:54.454Z,98869.16
2023-02-03T22:51:56.615Z,98872.59
2023-02-03T22:54:58.888Z,98872.59
2023-02-03T22:58:01.092Z,98874.75
2023-02-03T23:01:03.337Z,98867.53
2023-02-03T23:04:05.667Z,98872.59
2023-02-03T23:07:07.872Z,98871.13
2023-02-03T23:10:21.789Z,98870.50
2023-02-03T23:13:24.190Z,98874.41
2023-02-03T23:16:26.443Z,98875.41
2023-02-03T23:19:28.792Z,98862.12
2023-02-03T23:22:31.023Z,98854.91
2023-02-03T23:25:33.189Z,98861.16
2023-02-03T23:28:35.404Z,98866.72
2023-02-03T23:31:37.683Z,98871.31
2023-02-03T23:34:58.752Z,98878.00
2023-02-03T23:38:00.953Z,98864.25
2023-02-03T23:41:03.138Z,98861.72
2023-02-03T23:44:05.566Z,98854.81
2023-02-03T23:47:07.986Z,98848.41
2023-02-03T23:50:13.786Z,98848.25
2023-02-03T23:53:15.946Z,98840.81
2023-02-03T23:56:18.093Z,98848.69
2023-02-03T23:59:20.336Z,98824.88
